Time;durP1;ratioP1;P1;durP2;ratioP2;P2;SDS_P1;SDS_P2;PMS_P1;PMS_P2;Temp;Humidity;BMP_temperature;BMP_pressure;BME280_temperature;BME280_humidity;BME280_pressure;Samples;Min_cycle;Max_cycle;Signal;HPM_P1;HPM_P2
2021/07/24 00:01:25;;;;;;;16.48;7.72;;;;;;;17.72;100.00;94741.91;10543266;28;20024;-85
2021/07/24 00:06:25;;;;;;;10.60;6.70;;;;;;;17.80;100.00;94734.88;10543206;28;20032;-85
2021/07/24 00:11:26;;;;;;;11.53;7.20;;;;;;;17.70;100.00;94735.19;10558907;28;20445;-84
2021/07/24 00:16:26;;;;;;;15.27;8.30;;;;;;;17.66;100.00;94739.66;10542924;28;20327;-84
2021/07/24 00:21:27;;;;;;;18.92;10.15;;;;;;;17.64;100.00;94737.28;10542694;28;20024;-84
2021/07/24 00:26:27;;;;;;;13.48;9.07;;;;;;;17.65;100.00;94733.44;10524242;28;20114;-84
2021/07/24 00:31:28;;;;;;;14.40;8.33;;;;;;;17.73;100.00;94729.91;10541888;28;20107;-84
2021/07/24 00:36:29;;;;;;;10.10;7.32;;;;;;;17.80;100.00;94743.03;10542107;28;20353;-84
2021/07/24 00:41:41;;;;;;;9.13;6.38;;;;;;;17.76;100.00;94731.19;10541482;28;20056;-84
2021/07/24 00:46:42;;;;;;;10.65;6.38;;;;;;;17.54;100.00;94740.28;10541678;28;20055;-84
2021/07/24 00:51:47;;;;;;;9.18;6.47;;;;;;;17.38;100.00;94726.34;10523499;28;20526;-84
2021/07/24 00:56:49;;;;;;;11.60;7.30;;;;;;;17.11;100.00;94728.22;10541130;28;20449;-84
2021/07/24 01:01:52;;;;;;;9.57;6.93;;;;;;;16.89;100.00;94734.50;10540780;28;20028;-84
2021/07/24 01:06:53;;;;;;;10.90;6.88;;;;;;;16.81;100.00;94730.59;10540500;28;20020;-84
2021/07/24 01:11:54;;;;;;;12.60;6.97;;;;;;;16.86;100.00;94727.75;10540360;28;20413;-85
2021/07/24 01:16:54;;;;;;;9.50;6.60;;;;;;;16.92;100.00;94725.72;10540443;28;20028;-85
2021/07/24 01:21:55;;;;;;;12.40;6.37;;;;;;;16.94;100.00;94728.94;10538680;28;20112;-85
2021/07/24 01:26:56;;;;;;;13.20;7.22;;;;;;;16.79;100.00;94740.19;10540025;28;20056;-85
2021/07/24 01:31:56;;;;;;;10.97;6.17;;;;;;;16.87;100.00;94734.78;10539602;28;20019;-85
2021/07/24 01:36:57;;;;;;;10.98;7.03;;;;;;;16.75;100.00;94721.00;10539369;28;20024;-85
2021/07/24 01:41:57;;;;;;;10.82;7.03;;;;;;;16.82;100.00;94721.34;10538258;28;20022;-85
2021/07/24 01:46:58;;;;;;;10.60;6.43;;;;;;;16.84;100.00;94716.44;10539827;28;20085;-85
2021/07/24 01:57:29;;;;;;;11.90;7.22;;;;;;;16.60;100.00;94724.91;10533290;28;20039;-85
2021/07/24 02:02:31;;;;;;;11.35;7.43;;;;;;;16.45;100.00;94712.56;10538061;28;20028;-85
2021/07/24 02:07:36;;;;;;;10.27;5.97;;;;;;;16.42;100.00;94721.31;10537951;28;20028;-85
2021/07/24 02:12:39;;;;;;;9.18;6.65;;;;;;;16.41;100.00;94717.00;10538140;28;20479;-85
2021/07/24 02:17:39;;;;;;;12.50;6.60;;;;;;;16.40;100.00;94709.97;10537732;28;20028;-85
2021/07/24 02:22:39;;;;;;;11.90;6.32;;;;;;;16.34;100.00;94716.63;10537670;28;20077;-85
2021/07/24 02:27:50;;;;;;;9.10;6.40;;;;;;;16.04;100.00;94727.13;10535659;28;20047;-85
2021/07/24 02:32:50;;;;;;;14.48;6.72;;;;;;;15.83;100.00;94726.81;10524206;28;20115;-85
2021/07/24 02:37:51;;;;;;;12.33;7.37;;;;;;;15.72;100.00;94721.56;10532017;28;20494;-85
2021/07/24 02:42:51;;;;;;;10.30;6.70;;;;;;;15.75;100.00;94719.38;10540319;28;20066;-85
2021/07/24 02:47:52;;;;;;;11.18;6.65;;;;;;;15.73;100.00;94725.91;10536152;28;20024;-85
2021/07/24 02:52:52;;;;;;;13.43;7.67;;;;;;;15.61;100.00;94736.47;10536043;28;20089;-85
2021/07/24 02:57:52;;;;;;;14.30;8.57;;;;;;;15.52;100.00;94741.81;10535158;28;20278;-85
2021/07/24 03:02:53;;;;;;;11.38;6.80;;;;;;;15.53;100.00;94750.72;10530335;28;20027;-85
2021/07/24 03:07:53;;;;;;;11.67;6.87;;;;;;;15.58;100.00;94731.66;10531327;28;20032;-85
2021/07/24 03:12:53;;;;;;;12.37;6.33;;;;;;;15.61;100.00;94744.59;10531497;28;20771;-85
2021/07/24 03:17:54;;;;;;;9.10;7.17;;;;;;;15.54;100.00;94744.22;10525862;28;20042;-85
2021/07/24 03:22:55;;;;;;;13.37;6.63;;;;;;;15.50;100.00;94741.31;10528431;28;20028;-84
2021/07/24 03:27:56;;;;;;;17.08;7.68;;;;;;;15.59;100.00;94740.63;10533915;28;20035;-85
2021/07/24 03:32:56;;;;;;;10.20;7.10;;;;;;;15.61;100.00;94746.50;10548239;28;20035;-85
2021/07/24 03:38:02;;;;;;;12.77;8.17;;;;;;;15.54;100.00;94745.03;10530493;28;20281;-85
2021/07/24 03:43:02;;;;;;;16.15;8.27;;;;;;;15.57;100.00;94753.66;10530456;28;20024;-85
2021/07/24 03:48:03;;;;;;;10.52;8.20;;;;;;;15.70;100.00;94753.63;10530561;28;20032;-85
2021/07/24 03:53:04;;;;;;;12.13;7.78;;;;;;;15.81;100.00;94750.69;10533900;28;20036;-85
2021/07/24 03:58:04;;;;;;;13.80;9.13;;;;;;;15.94;100.00;94758.00;10533713;28;20399;-85
2021/07/24 04:03:05;;;;;;;18.63;10.97;;;;;;;15.92;100.00;94768.34;10534488;28;20032;-85
2021/07/24 04:08:06;;;;;;;15.35;10.70;;;;;;;15.96;100.00;94761.19;10530037;28;20032;-85
2021/07/24 04:13:06;;;;;;;15.63;10.50;;;;;;;16.03;100.00;94772.44;10530114;28;20668;-85
2021/07/24 04:18:07;;;;;;;17.70;11.67;;;;;;;16.02;100.00;94778.16;10529805;28;20035;-85
2021/07/24 04:23:08;;;;;;;19.95;11.27;;;;;;;16.06;100.00;94781.81;10537204;28;20498;-85
2021/07/24 04:28:09;;;;;;;18.52;12.80;;;;;;;16.03;100.00;94775.13;10542184;28;20055;-85
2021/07/24 04:33:09;;;;;;;18.08;12.63;;;;;;;16.18;100.00;94784.00;10542010;28;20028;-85
2021/07/24 04:38:10;;;;;;;17.33;12.17;;;;;;;16.47;100.00;94780.88;10541235;28;20177;-85
2021/07/24 04:43:10;;;;;;;20.27;11.37;;;;;;;17.02;100.00;94773.53;10539741;28;20028;-85
2021/07/24 04:48:11;;;;;;;16.35;10.70;;;;;;;17.71;100.00;94778.38;10541468;28;20035;-85
2021/07/24 04:53:13;;;;;;;18.60;10.65;;;;;;;18.37;100.00;94779.38;10541275;28;20088;-85
2021/07/24 04:58:13;;;;;;;17.95;9.45;;;;;;;18.89;100.00;94781.22;10556886;28;20027;-85
2021/07/24 05:03:15;;;;;;;16.98;9.77;;;;;;;19.40;100.00;94782.16;10540979;28;20035;-85
2021/07/24 05:08:16;;;;;;;18.75;9.40;;;;;;;19.88;100.00;94777.41;10541165;28;20424;-85
2021/07/24 05:13:16;;;;;;;15.05;8.50;;;;;;;20.46;100.00;94785.78;10540900;28;20028;-85
2021/07/24 05:18:17;;;;;;;16.00;9.17;;;;;;;20.81;100.00;94777.28;10540590;28;20035;-85
2021/07/24 05:23:17;;;;;;;17.13;7.55;;;;;;;21.33;100.00;94783.28;10540581;28;20834;-85
2021/07/24 05:28:18;;;;;;;14.00;7.25;;;;;;;22.01;100.00;94774.50;10541007;28;20395;-85
2021/07/24 05:33:18;;;;;;;21.67;8.37;;;;;;;22.36;97.83;94770.44;10540227;28;20065;-85
2021/07/24 05:38:18;;;;;;;13.67;7.57;;;;;;;23.01;92.07;94774.94;10539710;28;20403;-82
2021/07/24 05:43:19;;;;;;;14.50;7.97;;;;;;;23.31;88.49;94769.84;10538958;28;20028;-83
2021/07/24 05:48:19;;;;;;;11.47;7.40;;;;;;;24.17;82.19;94762.03;10550411;28;20273;-85
2021/07/24 05:53:20;;;;;;;10.38;7.20;;;;;;;24.71;76.20;94769.44;10538884;28;20020;-84
2021/07/24 05:58:20;;;;;;;10.03;7.10;;;;;;;25.32;69.55;94768.94;10539566;28;20035;-84
2021/07/24 06:03:20;;;;;;;9.23;5.77;;;;;;;25.84;64.72;94772.94;10554539;28;20114;-84
2021/07/24 06:08:21;;;;;;;13.23;6.13;;;;;;;26.25;60.16;94764.13;10538601;28;20032;-84
2021/07/24 06:13:23;;;;;;;10.33;5.83;;;;;;;26.62;56.42;94774.41;10538965;28;20020;-84
2021/07/24 06:18:24;;;;;;;11.20;5.32;;;;;;;27.09;54.25;94767.44;10538308;28;20532;-85
2021/07/24 06:23:24;;;;;;;14.15;4.50;;;;;;;27.37;50.84;94774.44;10537936;28;20072;-85
2021/07/24 06:28:24;;;;;;;10.40;5.10;;;;;;;27.69;49.75;94776.69;10537771;28;20035;-85
2021/07/24 06:33:25;;;;;;;9.60;4.40;;;;;;;28.06;47.96;94775.78;10537671;28;20020;-85
2021/07/24 06:38:26;;;;;;;9.97;5.17;;;;;;;28.10;50.38;94771.09;10537614;28;20060;-85
2021/07/24 06:43:26;;;;;;;12.40;6.03;;;;;;;27.61;52.65;94766.75;10536511;28;20102;-85
2021/07/24 06:48:27;;;;;;;12.43;6.40;;;;;;;27.08;54.41;94765.84;10537483;28;20469;-85
2021/07/24 06:53:27;;;;;;;11.90;7.40;;;;;;;27.61;53.69;94759.25;10537155;28;20747;-85
2021/07/24 06:58:28;;;;;;;16.40;8.23;;;;;;;28.60;47.93;94766.97;10536817;28;20509;-85
2021/07/24 07:03:28;;;;;;;19.55;6.78;;;;;;;29.57;44.43;94760.88;10535373;28;20032;-85
2021/07/24 07:08:28;;;;;;;10.37;6.23;;;;;;;30.61;43.43;94754.41;10529890;28;20426;-85
2021/07/24 07:13:29;;;;;;;8.00;4.90;;;;;;;31.30;39.75;94754.84;10530929;28;20093;-85
2021/07/24 07:18:29;;;;;;;16.05;5.15;;;;;;;31.91;38.22;94745.25;10534294;28;20491;-85
2021/07/24 07:23:30;;;;;;;10.23;5.25;;;;;;;32.52;37.42;94744.63;10536148;28;20052;-85
2021/07/24 07:28:30;;;;;;;14.10;4.30;;;;;;;33.25;35.15;94747.31;10536044;28;20413;-85
2021/07/24 07:33:30;;;;;;;6.40;3.97;;;;;;;33.92;34.94;94747.44;10587257;27;20493;-84
2021/07/24 07:38:31;;;;;;;7.93;3.20;;;;;;;34.21;33.73;94739.34;10593661;28;20085;-85
2021/07/24 07:43:31;;;;;;;11.30;3.30;;;;;;;34.43;32.27;94738.97;10577251;28;20850;-85
2021/07/24 07:48:35;;;;;;;10.67;3.93;;;;;;;34.75;32.89;94746.69;10570933;28;20035;-82
2021/07/24 07:53:36;;;;;;;8.07;3.17;;;;;;;35.04;31.87;94734.13;10569247;28;20030;-82
2021/07/24 07:58:37;;;;;;;7.63;3.03;;;;;;;35.57;31.07;94734.94;10577799;28;20889;-82
2021/07/24 08:03:39;;;;;;;4.85;3.13;;;;;;;36.09;29.87;94726.88;10576632;28;20031;-82
2021/07/24 08:08:39;;;;;;;6.20;3.03;;;;;;;36.12;29.51;94723.19;10576087;28;20120;-82
2021/07/24 08:13:40;;;;;;;7.37;3.07;;;;;;;36.32;29.77;94725.88;10575340;28;20026;-83
2021/07/24 08:18:41;;;;;;;7.47;3.30;;;;;;;37.29;27.36;94733.50;10549071;28;20036;-82
2021/07/24 08:23:42;;;;;;;6.72;3.08;;;;;;;36.61;29.44;94714.66;10534403;28;20049;-82
2021/07/24 08:28:42;;;;;;;3.20;2.90;;;;;;;36.94;27.83;94713.75;10534983;28;20498;-83
2021/07/24 08:33:43;;;;;;;11.97;3.30;;;;;;;36.69;27.97;94726.44;10551333;28;20270;-82
2021/07/24 08:38:43;;;;;;;5.70;2.45;;;;;;;36.46;28.19;94719.09;10535266;28;20024;-82
2021/07/24 08:43:45;;;;;;;3.93;2.53;;;;;;;36.87;25.77;94714.75;10535144;28;20028;-82
2021/07/24 08:48:45;;;;;;;8.02;3.30;;;;;;;37.48;26.42;94714.88;10534569;28;20088;-82
2021/07/24 08:53:47;;;;;;;3.67;2.75;;;;;;;37.58;26.04;94721.38;10533825;28;20454;-83
2021/07/24 08:58:51;;;;;;;4.57;3.17;;;;;;;36.04;29.47;94713.41;10534456;28;20032;-82
2021/07/24 09:03:53;;;;;;;4.45;2.63;;;;;;;37.96;25.76;94718.53;10516101;28;20081;-83
2021/07/24 09:08:56;;;;;;;15.25;2.60;;;;;;;38.94;24.99;94715.06;10513739;28;20032;-82
2021/07/24 09:13:56;;;;;;;4.95;3.05;;;;;;;37.38;25.50;94718.81;10533284;28;20031;-83
2021/07/24 09:18:58;;;;;;;5.30;2.97;;;;;;;35.11;29.00;94722.81;10534825;28;20038;-82
2021/07/24 09:24:22;;;;;;;5.07;3.15;;;;;;;32.42;31.85;94735.22;10535386;28;20040;-83
2021/07/24 09:29:22;;;;;;;11.00;4.00;;;;;;;30.86;35.35;94734.88;10535715;28;20121;-83
2021/07/24 09:34:40;;;;;;;5.43;3.20;;;;;;;29.49;39.11;94735.19;10532881;28;20161;-82
2021/07/24 09:39:40;;;;;;;;;;;;;;;28.56;41.93;94732.97;10536089;28;20031;-82
2021/07/24 09:44:40;;;;;;;10.35;3.80;;;;;;;28.33;42.63;94747.09;10536056;28;20671;-82
2021/07/24 09:49:41;;;;;;;6.27;3.40;;;;;;;27.58;44.36;94743.47;10535764;28;20040;-82
2021/07/24 09:54:42;;;;;;;8.55;3.92;;;;;;;27.17;46.97;94756.47;10535185;28;20034;-82
2021/07/24 09:59:42;;;;;;;4.40;3.40;;;;;;;26.39;49.83;94758.78;10535549;28;20028;-82
2021/07/24 10:04:52;;;;;;;7.97;3.47;;;;;;;26.24;48.79;94779.81;10535763;28;20077;-82
2021/07/24 10:09:54;;;;;;;9.38;4.53;;;;;;;25.38;51.95;94779.31;10534779;28;20052;-83
2021/07/24 10:14:54;;;;;;;7.80;5.38;;;;;;;25.13;56.23;94773.34;10535873;28;20093;-82
2021/07/24 10:19:55;;;;;;;8.70;4.97;;;;;;;25.23;55.02;94775.50;10534009;28;20024;-82
2021/07/24 10:24:56;;;;;;;9.73;4.47;;;;;;;24.67;62.70;94787.81;10536090;28;20052;-83
2021/07/24 10:30:03;;;;;;;9.80;4.77;;;;;;;24.35;68.40;94784.38;10551779;28;20027;-82
2021/07/24 10:35:04;;;;;;;5.07;3.63;;;;;;;24.37;59.20;94780.09;10535839;28;20051;-83
2021/07/24 10:40:21;;;;;;;7.20;4.70;;;;;;;24.76;65.15;94782.09;10534984;28;20028;-82
2021/07/24 10:45:35;;;;;;;8.57;4.45;;;;;;;24.79;61.65;94775.88;10534799;28;20516;-82
2021/07/24 10:50:53;;;;;;;14.25;4.47;;;;;;;25.71;54.41;94783.38;10532362;28;20406;-83
2021/07/24 10:55:57;;;;;;;6.72;3.85;;;;;;;26.09;57.05;94789.06;10533827;28;20020;-82
2021/07/24 11:00:59;;;;;;;6.07;4.22;;;;;;;25.96;53.00;94796.72;10526322;28;20036;-82
2021/07/24 11:06:29;;;;;;;4.68;3.38;;;;;;;28.60;45.65;94791.84;10531560;28;20465;-83
2021/07/24 11:12:11;;;;;;;7.82;3.60;;;;;;;28.02;45.49;94787.97;10536552;28;20034;-82
2021/07/24 11:17:14;;;;;;;11.55;3.63;;;;;;;27.16;46.38;94788.81;10465282;28;20515;-83
2021/07/24 11:22:15;;;;;;;4.75;3.50;;;;;;;26.69;46.27;94779.22;10535862;28;20034;-83
2021/07/24 11:27:30;;;;;;;5.82;3.95;;;;;;;26.58;48.19;94770.81;10532279;28;20051;-82
2021/07/24 11:32:32;;;;;;;6.00;3.85;;;;;;;26.41;48.88;94759.19;10532714;28;20545;-83
2021/07/24 11:37:36;;;;;;;7.50;3.88;;;;;;;26.34;45.13;94750.03;10532887;28;20032;-83
2021/07/24 11:42:37;;;;;;;7.28;3.70;;;;;;;26.46;44.60;94749.81;10533583;28;20764;-83
2021/07/24 11:47:37;;;;;;;8.43;3.78;;;;;;;26.31;42.57;94751.59;10533806;28;20137;-83
2021/07/24 11:52:38;;;;;;;4.10;3.13;;;;;;;25.90;45.91;94760.44;10531871;28;20031;-82
2021/07/24 11:57:42;;;;;;;4.68;2.95;;;;;;;25.29;40.57;94753.19;10532394;28;20027;-82
2021/07/24 12:02:42;;;;;;;3.92;3.15;;;;;;;25.47;40.42;94746.03;10531977;28;20055;-82
2021/07/24 12:07:42;;;;;;;7.03;2.97;;;;;;;25.79;39.94;94742.19;10532066;28;20056;-82
2021/07/24 12:12:43;;;;;;;3.23;2.57;;;;;;;25.96;38.48;94730.63;10532900;28;20355;-82
2021/07/24 12:17:46;;;;;;;4.88;3.13;;;;;;;26.17;38.92;94723.84;10531187;28;20012;-83
2021/07/24 12:22:46;;;;;;;4.65;3.35;;;;;;;26.48;39.35;94722.66;10532356;28;20028;-83
2021/07/24 12:27:48;;;;;;;3.90;3.15;;;;;;;26.83;38.72;94720.69;10531926;28;20511;-82
2021/07/24 12:32:48;;;;;;;7.10;3.33;;;;;;;26.69;38.34;94713.84;10531857;28;20024;-82
2021/07/24 12:37:48;;;;;;;3.93;3.17;;;;;;;27.06;38.97;94702.00;10531189;28;20024;-82
2021/07/24 12:42:49;;;;;;;5.50;3.20;;;;;;;27.02;38.38;94703.94;10534389;28;20032;-82
2021/07/24 12:47:50;;;;;;;6.20;3.88;;;;;;;27.07;39.57;94702.78;10538634;28;20111;-83
2021/07/24 12:52:55;;;;;;;6.75;3.83;;;;;;;27.09;40.23;94694.94;10539143;28;20073;-83
2021/07/24 12:57:55;;;;;;;6.45;3.92;;;;;;;26.67;39.67;94691.38;10538412;28;20055;-82
2021/07/24 13:02:55;;;;;;;5.97;4.67;;;;;;;26.20;41.64;94690.84;10538782;28;20111;-82
2021/07/24 13:07:58;;;;;;;6.13;3.97;;;;;;;26.34;40.92;94690.22;10538334;28;20030;-82
2021/07/24 13:12:59;;;;;;;6.95;3.60;;;;;;;26.21;41.45;94684.16;10537881;28;20023;-82
2021/07/24 13:17:59;;;;;;;5.57;3.90;;;;;;;26.15;41.42;94684.88;10537759;28;20031;-82
2021/07/24 13:23:00;;;;;;;6.63;4.53;;;;;;;26.12;42.15;94675.38;10531567;28;20032;-82
2021/07/24 13:28:21;;;;;;;6.90;4.40;;;;;;;26.26;41.60;94678.31;10537620;28;20471;-82
2021/07/24 13:33:21;;;;;;;8.63;4.28;;;;;;;26.26;41.37;94683.03;10537027;28;20028;-83
2021/07/24 13:38:21;;;;;;;7.90;4.37;;;;;;;25.88;42.09;94691.19;10537727;28;20024;-82
2021/07/24 13:43:21;;;;;;;6.05;4.32;;;;;;;25.76;42.18;94696.94;10536276;28;20282;-82
2021/07/24 13:48:22;;;;;;;8.18;4.53;;;;;;;25.67;41.92;94708.19;10531971;28;20084;-82
2021/07/24 13:53:22;;;;;;;9.00;5.30;;;;;;;25.38;51.54;94709.72;10528453;28;20075;-82
2021/07/24 13:58:22;;;;;;;12.37;5.47;;;;;;;25.47;58.07;94704.75;10534319;28;20031;-81
2021/07/24 14:03:24;;;;;;;9.93;5.53;;;;;;;25.60;61.89;94702.59;10533117;28;20395;-82
2021/07/24 14:08:25;;;;;;;12.13;5.68;;;;;;;25.86;60.38;94698.25;10535845;28;20024;-82
2021/07/24 14:13:25;;;;;;;8.33;5.00;;;;;;;26.15;56.42;94704.97;10536141;28;20023;-82
2021/07/24 14:18:27;;;;;;;12.82;5.47;;;;;;;26.41;54.81;94703.28;10535216;28;20348;-82
2021/07/24 14:23:28;;;;;;;10.68;5.20;;;;;;;26.50;54.75;94701.03;10534616;28;20044;-82
2021/07/24 14:28:29;;;;;;;7.37;5.30;;;;;;;26.73;51.72;94705.63;10534359;28;20020;-82
2021/07/24 14:33:33;;;;;;;6.88;4.82;;;;;;;26.75;50.45;94704.09;10533938;28;20099;-82
2021/07/24 14:38:34;;;;;;;8.90;5.32;;;;;;;27.04;50.26;94701.59;10533638;28;20028;-82
2021/07/24 14:43:35;;;;;;;10.65;5.45;;;;;;;27.20;48.52;94693.06;10532866;28;20039;-82
2021/07/24 14:48:36;;;;;;;7.50;4.65;;;;;;;27.24;46.78;94695.88;10530253;28;20036;-82
2021/07/24 14:53:36;;;;;;;9.13;4.72;;;;;;;27.38;45.12;94696.00;10528806;28;20024;-82
2021/07/24 14:58:36;;;;;;;7.27;4.87;;;;;;;27.34;46.02;94691.59;10547004;28;20020;-82
2021/07/24 15:03:37;;;;;;;6.30;5.13;;;;;;;27.38;47.17;94681.38;10531654;28;20024;-82
2021/07/24 15:08:38;;;;;;;8.20;5.00;;;;;;;27.08;46.93;94693.34;10548660;28;20028;-83
2021/07/24 15:13:39;;;;;;;8.35;4.00;;;;;;;26.96;46.10;94686.16;10533595;28;20016;-82
2021/07/24 15:18:40;;;;;;;11.25;5.00;;;;;;;26.73;48.26;94692.63;10532658;28;20066;-82
2021/07/24 15:23:41;;;;;;;6.95;5.53;;;;;;;26.60;47.53;94703.09;10533150;28;20564;-83
2021/07/24 15:28:42;;;;;;;9.68;4.82;;;;;;;26.46;45.75;94708.47;10548237;28;20085;-82
2021/07/24 15:33:42;;;;;;;7.78;4.15;;;;;;;25.87;48.34;94719.09;10533126;28;20023;-82
2021/07/24 15:38:42;;;;;;;9.43;5.00;;;;;;;25.03;51.40;94708.75;10533118;28;20545;-82
2021/07/24 15:43:43;;;;;;;8.33;5.60;;;;;;;23.94;56.77;94718.78;10533250;28;20032;-81
2021/07/24 15:48:43;;;;;;;9.00;5.00;;;;;;;23.65;58.03;94720.91;10548702;28;20031;-82
2021/07/24 15:53:43;;;;;;;7.03;4.77;;;;;;;23.41;61.17;94724.63;10549223;28;20039;-82
2021/07/24 15:58:44;;;;;;;9.00;5.60;;;;;;;22.99;67.86;94720.47;10533246;28;20031;-82
2021/07/24 16:03:44;;;;;;;7.30;5.37;;;;;;;22.90;68.53;94719.84;10532171;28;20084;-82
2021/07/24 16:08:44;;;;;;;6.87;4.73;;;;;;;22.99;68.10;94712.25;10532674;28;20107;-82
2021/07/24 16:13:45;;;;;;;8.57;5.43;;;;;;;22.96;64.00;94726.66;10532721;28;20016;-82
2021/07/24 16:18:45;;;;;;;9.53;5.07;;;;;;;22.95;58.63;94722.31;10539765;28;20888;-82
2021/07/24 16:23:46;;;;;;;10.02;5.10;;;;;;;23.01;59.12;94729.13;10538776;28;20384;-82
2021/07/24 16:28:46;;;;;;;7.97;5.10;;;;;;;22.93;59.93;94727.38;10537029;28;20482;-82
2021/07/24 16:33:46;;;;;;;7.90;5.30;;;;;;;22.85;61.14;94729.13;10539139;28;20097;-82
2021/07/24 16:38:48;;;;;;;13.33;6.67;;;;;;;22.97;61.67;94731.00;10538070;28;20336;-83
2021/07/24 16:43:48;;;;;;;7.75;5.00;;;;;;;22.97;66.08;94735.66;10552000;28;20115;-82
2021/07/24 16:48:49;;;;;;;11.73;6.17;;;;;;;22.73;81.43;94737.44;10535992;28;20036;-83
2021/07/24 16:53:50;;;;;;;13.63;6.25;;;;;;;22.36;93.37;94743.84;10536491;28;20551;-83
2021/07/24 16:58:50;;;;;;;10.87;6.60;;;;;;;22.16;99.89;94751.09;10537675;28;20367;-83
2021/07/24 17:03:50;;;;;;;11.37;7.20;;;;;;;22.00;100.00;94752.97;10537344;28;20100;-82
2021/07/24 17:08:51;;;;;;;12.00;7.00;;;;;;;21.89;100.00;94746.38;10536369;28;20494;-82
2021/07/24 17:13:53;;;;;;;10.50;6.80;;;;;;;21.85;100.00;94746.25;10533557;28;20331;-83
2021/07/24 17:18:55;;;;;;;17.80;8.60;;;;;;;21.83;100.00;94740.34;10535398;28;20478;-83
2021/07/24 17:23:56;;;;;;;10.45;6.70;;;;;;;21.80;100.00;94739.09;10534659;28;20044;-83
2021/07/24 17:28:56;;;;;;;21.87;9.27;;;;;;;21.43;100.00;94746.50;10535274;28;20031;-82
2021/07/24 17:33:58;;;;;;;10.50;6.83;;;;;;;21.22;100.00;94744.66;10534887;28;20524;-83
2021/07/24 17:38:58;;;;;;;13.90;7.18;;;;;;;20.98;100.00;94751.72;10551346;28;20073;-83
2021/07/24 17:43:58;;;;;;;13.47;6.40;;;;;;;20.84;100.00;94753.97;10533651;28;20028;-82
2021/07/24 17:48:59;;;;;;;12.27;7.33;;;;;;;20.84;100.00;94753.97;10532315;28;20020;-82
2021/07/24 17:53:59;;;;;;;11.10;6.57;;;;;;;20.84;100.00;94759.44;10532069;28;20020;-82
2021/07/24 17:58:59;;;;;;;11.17;6.23;;;;;;;20.87;100.00;94755.22;10532607;28;20262;-82
2021/07/24 18:04:00;;;;;;;15.20;9.10;;;;;;;20.75;100.00;94764.19;10534398;28;20024;-83
2021/07/24 18:09:00;;;;;;;11.90;8.70;;;;;;;20.66;100.00;94759.56;10534196;28;20062;-82
2021/07/24 18:14:01;;;;;;;15.32;7.25;;;;;;;20.60;100.00;94754.69;10533399;28;20645;-82
2021/07/24 18:19:01;;;;;;;12.40;7.00;;;;;;;20.54;100.00;94767.75;10532757;28;20030;-82
2021/07/24 18:24:02;;;;;;;11.10;7.53;;;;;;;20.21;100.00;94771.25;10533151;28;21180;-82
2021/07/24 18:29:02;;;;;;;11.68;7.90;;;;;;;19.97;100.00;94777.38;10533886;28;20352;-82
2021/07/24 18:34:03;;;;;;;11.48;7.38;;;;;;;19.85;100.00;94780.03;10533852;28;20016;-82
2021/07/24 18:39:03;;;;;;;31.53;9.80;;;;;;;19.66;100.00;94788.59;10527862;28;20035;-82
2021/07/24 18:44:04;;;;;;;11.45;6.50;;;;;;;19.64;100.00;94797.91;10528033;28;20097;-83
2021/07/24 18:49:04;;;;;;;14.77;6.97;;;;;;;19.56;100.00;94800.69;10547285;28;20032;-83
2021/07/24 18:54:05;;;;;;;15.27;8.00;;;;;;;19.49;100.00;94803.13;10574125;28;20030;-82
2021/07/24 18:59:05;;;;;;;11.13;7.83;;;;;;;19.33;100.00;94811.06;10574197;28;20687;-82
2021/07/24 19:04:05;;;;;;;8.83;6.67;;;;;;;19.11;100.00;94815.63;10573661;28;20032;-82
2021/07/24 19:09:06;;;;;;;11.13;7.07;;;;;;;18.59;100.00;94817.28;10573819;28;20035;-82
2021/07/24 19:14:06;;;;;;;13.55;8.15;;;;;;;18.24;100.00;94817.31;10590623;27;20118;-82
2021/07/24 19:19:07;;;;;;;18.92;8.93;;;;;;;18.03;100.00;94819.88;10574760;28;20052;-82
2021/07/24 19:24:07;;;;;;;10.80;7.73;;;;;;;17.97;100.00;94829.28;10573777;28;20043;-82
2021/07/24 19:29:07;;;;;;;14.45;7.93;;;;;;;17.93;100.00;94826.41;10572075;28;20277;-82
2021/07/24 19:34:08;;;;;;;12.03;7.53;;;;;;;17.97;100.00;94825.78;10564763;28;20031;-81
2021/07/24 19:39:08;;;;;;;12.13;7.40;;;;;;;17.93;100.00;94826.41;10550018;28;20151;-81
2021/07/24 19:44:08;;;;;;;12.27;8.57;;;;;;;17.94;100.00;94824.47;10567897;28;20762;-81
2021/07/24 19:49:09;;;;;;;11.30;7.27;;;;;;;17.90;100.00;94837.91;10570317;28;20273;-81
2021/07/24 19:54:09;;;;;;;18.20;7.60;;;;;;;17.89;100.00;94830.84;10560203;28;20090;-81
2021/07/24 19:59:10;;;;;;;14.40;6.60;;;;;;;17.91;100.00;94836.78;10578602;28;20035;-82
2021/07/24 20:04:11;;;;;;;9.77;6.65;;;;;;;18.05;100.00;94838.56;10577647;28;20039;-81
2021/07/24 20:09:11;;;;;;;8.77;6.40;;;;;;;18.04;100.00;94845.94;10577718;28;20044;-81
2021/07/24 20:14:11;;;;;;;12.95;7.70;;;;;;;18.08;100.00;94841.47;10578028;28;20106;-82
2021/07/24 20:19:12;;;;;;;9.43;5.93;;;;;;;18.15;100.00;94840.97;10577975;28;20130;-82
2021/07/24 20:24:12;;;;;;;11.37;7.23;;;;;;;18.12;100.00;94844.34;10576848;28;20101;-81
2021/07/24 20:29:12;;;;;;;12.05;6.70;;;;;;;18.01;100.00;94840.34;10577933;28;20023;-81
2021/07/24 20:34:14;;;;;;;16.87;6.67;;;;;;;17.93;100.00;94850.88;10559692;28;20016;-82
2021/07/24 20:39:14;;;;;;;11.35;6.13;;;;;;;17.90;100.00;94846.06;10576753;28;20051;-82
2021/07/24 20:44:14;;;;;;;15.57;6.27;;;;;;;17.93;100.00;94847.34;10558828;28;20493;-82
2021/07/24 20:49:15;;;;;;;11.80;6.13;;;;;;;18.02;100.00;94850.09;10577651;28;20039;-82
2021/07/24 20:54:16;;;;;;;10.20;6.97;;;;;;;18.08;100.00;94856.97;10575219;28;20353;-81
2021/07/24 20:59:16;;;;;;;9.23;5.60;;;;;;;18.03;100.00;94863.38;10574609;28;20028;-81
2021/07/24 21:04:16;;;;;;;13.43;6.33;;;;;;;18.04;100.00;94862.25;10574314;28;20085;-82
2021/07/24 21:09:17;;;;;;;9.07;5.93;;;;;;;17.99;100.00;94862.41;10575345;28;20624;-82
2021/07/24 21:14:17;;;;;;;10.53;5.70;;;;;;;17.90;100.00;94856.94;10564923;28;20815;-81
2021/07/24 21:19:18;;;;;;;11.03;6.63;;;;;;;17.85;100.00;94859.00;10533743;28;20111;-81
2021/07/24 21:24:18;;;;;;;10.53;6.13;;;;;;;17.82;100.00;94859.59;10532606;28;21080;-82
2021/07/24 21:29:18;;;;;;;10.33;6.27;;;;;;;17.82;100.00;94859.59;10532864;28;20055;-81
2021/07/24 21:34:19;;;;;;;18.87;6.63;;;;;;;17.72;100.00;94863.41;10532767;28;20035;-81
2021/07/24 21:39:19;;;;;;;8.23;5.90;;;;;;;17.65;100.00;94869.34;10533582;28;20028;-82
2021/07/24 21:44:19;;;;;;;12.60;6.70;;;;;;;17.62;100.00;94871.88;10513712;28;20043;-81
2021/07/24 21:49:20;;;;;;;11.30;6.37;;;;;;;17.64;100.00;94858.75;10532295;28;20036;-81
2021/07/24 21:54:20;;;;;;;11.47;7.03;;;;;;;17.61;100.00;94862.94;10531440;28;20020;-82
2021/07/24 21:59:20;;;;;;;8.57;6.30;;;;;;;17.68;100.00;94857.81;10531673;28;20023;-81
2021/07/24 22:04:21;;;;;;;11.53;6.57;;;;;;;17.65;100.00;94860.38;10532468;28;20024;-81
2021/07/24 22:09:21;;;;;;;8.48;6.18;;;;;;;17.51;100.00;94860.47;10532755;28;20032;-81
2021/07/24 22:14:21;;;;;;;13.40;6.00;;;;;;;17.38;100.00;94868.41;10531905;28;20791;-82
2021/07/24 22:19:22;;;;;;;8.93;6.40;;;;;;;17.27;100.00;94860.88;10531364;28;20032;-81
2021/07/24 22:24:23;;;;;;;11.68;6.80;;;;;;;17.07;100.00;94868.44;10531651;28;20040;-82
2021/07/24 22:29:23;;;;;;;10.70;6.80;;;;;;;16.95;100.00;94881.78;10528392;28;20035;-82
2021/07/24 22:34:24;;;;;;;13.50;7.87;;;;;;;16.85;100.00;94867.28;10527140;28;20682;-82
2021/07/24 22:39:24;;;;;;;11.30;6.85;;;;;;;16.82;100.00;94875.28;10544328;28;20308;-81
2021/07/24 22:44:25;;;;;;;8.57;6.23;;;;;;;16.87;100.00;94869.69;10530328;28;20107;-81
2021/07/24 22:49:25;;;;;;;10.27;6.87;;;;;;;16.81;100.00;94877.16;10529810;28;20028;-82
2021/07/24 22:54:25;;;;;;;9.93;5.97;;;;;;;16.80;100.00;94864.72;10531083;28;20114;-81
2021/07/24 22:59:26;;;;;;;10.55;6.55;;;;;;;16.84;100.00;94864.91;10532011;28;20024;-82
2021/07/24 23:04:26;;;;;;;14.50;7.27;;;;;;;16.86;100.00;94876.25;10532035;28;20024;-82
2021/07/24 23:09:27;;;;;;;10.57;6.40;;;;;;;16.65;100.00;94871.31;10531818;28;20278;-81